Airdrie Aerodrome

CEF4 · Alberta, Canada

Storia di METAR CEF4 · Airdrie Aerodrome

Di seguito sono riportati i METAR degli ultimi giorni. Seleziona un anno per sfogliare i METAR più vecchi, dall'anno 2007 in poi.

14 aprile 2024

Tempo Codice Tempo meteorologico Temp. Vista Base nuvolosa Vento METAR/SPECI
20:00
V
14 °C 30 mi 23.000 ft 130° 130° 9 kt METAR CYYC 150200Z 13009KT 30SM FEW140 BKN230 14/M08 A2977 RMK AC1CI5 SLP108 DENSITY ALT 4600FT
19:00
V
15 °C 15 mi 35.000 ft 130° 130° 11 kt METAR CYYC 150100Z 13011KT 15SM FEW280 BKN350 15/M08 A2979 RMK CC2CI4 SLP114 DENSITY ALT 4700FT
18:00
V
16 °C 15 mi 35.000 ft 110° 110° 7 kt METAR CYYC 150000Z 11007KT 090V160 15SM SCT280 BKN350 16/M07 A2980 RMK CC3CI2 SLP117 DENSITY ALT 4800FT
17:00
V
16 °C 15 mi 35.000 ft 150° 150° 7 - 15 kt METAR CYYC 142300Z 15007G15KT 15SM SCT280 BKN350 16/M08 A2981 RMK CC4CI2 WSHFT 2240 SLP120 DENSITY ALT 4800FT
16:00
V
16 °C 15 mi 28.000 ft Var Var 5 kt METAR CYYC 142200Z VRB05KT 15SM BKN280 OVC350 16/M07 A2983 RMK CC5CI3 SLP123 DENSITY ALT 4700FT
15:00
V
16 °C 40 mi 30.000 ft Var Var 3 kt METAR CYYC 142100Z VRB03KT 40SM BKN300 16/M09 A2985 RMK CI7 SLP128 DENSITY ALT 4600FT
14:00
V
15 °C 40 mi - 030° 030° 6 kt METAR CYYC 142000Z 03006KT 350V110 40SM SCT300 15/M07 A2987 RMK CI3 SLP137 DENSITY ALT 4500FT
13:00
V
13 °C 40 mi - 040° 040° 11 kt METAR CYYC 141900Z 04011KT 40SM SCT300 13/M05 A2988 RMK CI3 SLP142 DENSITY ALT 4300FT
12:00
V
11 °C 40 mi 30.000 ft 030° 030° 7 kt METAR CYYC 141800Z 03007KT 40SM BKN300 11/M04 A2991 RMK CI5 SLP152 DENSITY ALT 4100FT
11:00
V
9 °C 40 mi 30.000 ft 360° 360° 7 kt METAR CYYC 141700Z 36007KT 40SM BKN300 09/M05 A2992 RMK CI5 SLP153
10:00
V
7 °C 40 mi - 360° 360° 7 kt METAR CYYC 141600Z 36007KT 40SM SCT300 07/M05 A2992 RMK CI3 SLP154
09:00
V
4 °C 40 mi - 350° 350° 5 kt METAR CYYC 141500Z 35005KT 40SM FEW300 04/M04 A2992 RMK CI2 SLP157
08:00
V
0 °C 40 mi 30.000 ft 340° 340° 8 kt METAR CYYC 141400Z 34008KT 40SM FEW220 BKN300 00/M05 A2991 RMK CC2CI3 SLP157
07:00
V
-1 °C 40 mi 26.000 ft 350° 350° 6 kt METAR CYYC 141300Z 35006KT 40SM FEW160 SCT220 BKN260 M01/M06 A2989 RMK AC1CC3CS2 SLP148
06:00
V
-2 °C 20 mi - 340° 340° 7 kt METAR CYYC 141200Z 34007KT 20SM FEW110 FEW230 M02/M05 A2988 RMK AC1CI2 AC TR SLP143
05:00
V
0 °C 15 mi - 350° 350° 4 kt METAR CYYC 141100Z 35004KT 15SM SKC M00/M05 A2987 RMK SLP138
04:00
V
2 °C 15 mi - 340° 340° 6 kt METAR CYYC 141000Z 34006KT 15SM FEW260 02/M05 A2987 RMK CI2 SLP135
03:19
V
2 °C 15 mi - 350° 350° 5 kt METAR CYYC 140919Z 35005KT 310V080 15SM SCT260 02/M05 A2986 RMK CI3 SLP132
03:00
V
4 °C 15 mi - 290° 290° 4 kt METAR CYYC 140900Z 29004KT 15SM SCT260 04/M05 A2986 RMK CI3 SLP130
02:00
V
3 °C 8 mi 25.000 ft 330° 330° 3 kt METAR CYYC 140800Z 33003KT 300V090 8SM BKN250 03/M05 A2987 RMK CI5 SLP136
01:00
V
4 °C 15 mi - 020° 020° 7 kt METAR CYYC 140700Z 02007KT 15SM FEW240 04/M04 A2987 RMK CI2 SLP137
00:00
V
6 °C 15 mi 25.000 ft 030° 030° 6 kt METAR CYYC 140600Z 03006KT 15SM FEW150 BKN250 06/M05 A2986 RMK AC2CI3 SLP131

13 aprile 2024

Tempo Codice Tempo meteorologico Temp. Vista Base nuvolosa Vento METAR/SPECI
23:45
V
6 °C 15 mi 24.000 ft 030° 030° 8 kt METAR CYYC 140545Z 03008KT 15SM SCT140 BKN240 06/M05 A2986 RMK AC4CI2 WSHFT 0452 SLP131
23:00
V
9 °C 15 mi 23.000 ft 060° 060° 10 kt METAR CYYC 140500Z 06010KT 340V060 15SM SCT140 BKN230 09/M06 A2985 RMK AC3CC2 SLP126
22:00
V
10 °C 15 mi - 330° 330° 7 kt METAR CYYC 140400Z 33007KT 320V060 15SM SCT250 10/M05 A2985 RMK CI4 SLP126 DENSITY ALT 3900FT
21:00
V
11 °C 30 mi - 360° 360° 9 - 22 kt METAR CYYC 140300Z 36009G22KT 30SM FEW140 FEW220 SCT250 11/M05 A2982 RMK AC1CI2CS2 AC TR ACSL SW SLP119 DENSITY ALT 4100FT
20:00
V
12 °C 40 mi 25.000 ft 060° 060° 5 kt METAR CYYC 140200Z 06005KT 40SM FEW100 BKN250 12/M04 A2979 RMK AC1CI5 AC TR SLP112 DENSITY ALT 4300FT
19:00
V
16 °C 30 mi 23.000 ft 300° 300° 5 kt METAR CYYC 140100Z 30005KT 30SM FEW100 BKN230 16/M09 A2978 RMK AC1CC7 AC TR SLP110 DENSITY ALT 4800FT
18:00
V
17 °C 30 mi 20.000 ft 280° 280° 6 kt METAR CYYC 140000Z 28006KT 30SM FEW100 BKN200 17/M09 A2979 RMK AC1CI7 AC TR SLP110 DENSITY ALT 4800FT
17:00
V
16 °C 40 mi 20.000 ft 190° 190° 8 kt METAR CYYC 132300Z 19008KT 150V250 40SM FEW097 BKN200 16/M07 A2978 RMK AC1CI7 AC TR SLP102 DENSITY ALT 4800FT
16:00
V
17 °C 40 mi 21.000 ft 290° 290° 9 - 15 kt METAR CYYC 132200Z 29009G15KT 40SM FEW100 BKN210 17/M09 A2977 RMK AC1CC7 AC TR SLP103 DENSITY ALT 4900FT
15:00
V
17 °C 40 mi 20.000 ft 330° 330° 12 - 20 kt METAR CYYC 132100Z 33012G20KT 260V350 40SM FEW110 BKN200 17/M08 A2978 RMK AC1CC7 AC TR SLP102 DENSITY ALT 4800FT
14:00
V
15 °C 40 mi 25.000 ft 270° 270° 3 kt METAR CYYC 132000Z 27003KT 190V330 40SM FEW090 FEW190 BKN250 15/M07 A2978 RMK AC1AC2CI5 AC TR CONTRAILS SLP104 DENSITY ALT 4700FT
13:00
V
14 °C 40 mi 25.000 ft Var Var 2 kt METAR CYYC 131900Z VRB02KT 40SM FEW079 BKN250 14/M07 A2980 RMK AC1CI6 CONTRAILS SLP108 DENSITY ALT 4500FT
12:00
V
14 °C 40 mi 25.000 ft 240° 240° 9 - 22 kt METAR CYYC 131800Z 24009G22KT 170V340 40SM FEW080 BKN250 14/M07 A2980 RMK AC2CI5 CC ASOCTD SLP108 DENSITY ALT 4500FT
11:00
V
12 °C 40 mi 25.000 ft 270° 270° 15 - 20 kt METAR CYYC 131700Z 27015G20KT 40SM FEW070 BKN250 12/M08 A2980 RMK AC1CI7 AC TR SLP109 DENSITY ALT 4300FT
10:00
V
11 °C 40 mi 25.000 ft 270° 270° 11 kt METAR CYYC 131600Z 27011KT 40SM FEW070 BKN250 11/M08 A2979 RMK AC1CC6 AC TR SLP108 DENSITY ALT 4200FT
09:00
V
8 °C 40 mi 25.000 ft 220° 220° 6 kt METAR CYYC 131500Z 22006KT 40SM FEW070 BKN250 08/M05 A2979 RMK AC1CC7 AC TR SLP111
08:00
V
4 °C 20 mi 25.000 ft Var Var 2 kt METAR CYYC 131400Z VRB02KT 20SM FEW070 BKN250 04/M03 A2979 RMK AC1CC7 AC TR SLP112
07:00
V
-1 °C 30 mi 25.000 ft 050° 050° 3 kt METAR CYYC 131300Z 05003KT 020V140 30SM FEW040 FEW140 BKN250 M01/M06 A2978 RMK CU1AC1CI5 CU TR SLP111
06:00
V
0 °C 15 mi - 360° 360° 0 kt METAR CYYC 131200Z 00000KT 15SM FEW070 FEW140 SCT240 00/M06 A2975 RMK CU1AC2CI2 CU TR SLP102
05:03
V
2 °C 15 mi - 360° 360° 0 kt METAR CYYC 131103Z 00000KT 15SM FEW250 02/M06 A2974 RMK CI1 CI TR SLP095
04:00
V
2 °C 15 mi - 130° 130° 3 kt METAR CYYC 131000Z 13003KT 15SM SKC 02/M06 A2973 RMK SLP093
03:58
V
2 °C 15 mi - 150° 150° 2 kt METAR CYYC 130958Z 15002KT 15SM SKC 02/M07 A2973 RMK SLP091
03:00
V
4 °C 15 mi - 330° 330° 5 kt METAR CYYC 130900Z 33005KT 15SM SKC 04/M06 A2972 RMK SLP083
02:46
V
2 °C 15 mi - 340° 340° 4 kt METAR CYYC 130846Z 34004KT 15SM SKC 02/M06 A2972 RMK SLP086
02:00
V
5 °C 15 mi - 320° 320° 5 kt METAR CYYC 130800Z 32005KT 280V360 15SM SKC 05/M06 A2971 RMK SLP082
01:00
V
6 °C 15 mi - 270° 270° 5 kt METAR CYYC 130700Z 27005KT 260V340 15SM FEW260 06/M05 A2972 RMK CI1 CI TR SLP082
00:00
V
9 °C 15 mi - 280° 280° 8 kt METAR CYYC 130600Z 28008KT 15SM SCT260 09/M05 A2971 RMK CI3 SLP078 DENSITY ALT 4000FT

12 aprile 2024

Tempo Codice Tempo meteorologico Temp. Vista Base nuvolosa Vento METAR/SPECI
23:00
V
9 °C 15 mi - 280° 280° 8 kt METAR CYYC 130500Z 28008KT 15SM FEW260 09/M05 A2971 RMK CI2 SLP076 DENSITY ALT 4000FT
22:00
V
8 °C 15 mi - 310° 310° 8 kt METAR CYYC 130400Z 31008KT 15SM FEW090 FEW250 08/M04 A2971 RMK AC1CI2 AC TR SLP078 DENSITY ALT 4000FT
21:00
V
10 °C 20 mi - 300° 300° 11 kt METAR CYYC 130300Z 30011KT 20SM FEW090 SCT250 10/M04 A2969 RMK AC1CI3 AC TR SLP071 DENSITY ALT 4100FT
20:00
V
12 °C 20 mi 25.000 ft 310° 310° 12 - 19 kt METAR CYYC 130200Z 31012G19KT 20SM FEW092 BKN250 12/M03 A2966 RMK AC2CI5 SLP062 DENSITY ALT 4400FT
19:00
V
14 °C 20 mi 8.000 ft 280° 280° 15 kt METAR CYYC 130100Z 28015KT 20SM BKN080 BKN250 14/M05 A2966 RMK AC6CI1 ACC ASOCTD / VIRGA E SLP057 DENSITY ALT 4700FT
18:00
V
14 °C 30 mi 9.500 ft 200° 200° 8 kt METAR CYYC 130000Z 20008KT 30SM BKN095 OVC250 14/M05 A2966 RMK AC7CI1 ACC ASOCTD SLP063 DENSITY ALT 4600FT
17:00
V
14 °C 30 mi 8.300 ft 230° 230° 8 kt METAR CYYC 122300Z 23008KT 180V250 30SM BKN083 BKN250 14/M05 A2967 RMK AC7CI1 CI TR ACC ASOCTD / VIRGA NE SLP066 DENSITY ALT 4700FT
16:00
V
13 °C 40 mi 8.200 ft 180° 180° 11 kt METAR CYYC 122200Z 18011KT 40SM BKN082 BKN250 13/M03 A2968 RMK AC6CI1 ACC ASOCTD / SH NE SLP070 DENSITY ALT 4600FT
15:00
V
14 °C 40 mi 8.000 ft 170° 170° 8 kt METAR CYYC 122100Z 17008KT 140V210 40SM BKN080 BKN250 14/M04 A2969 RMK AC7CI1 CI TR ACC ASOCTD / SH NW / CONTRAILS SLP072 DENSITY ALT 4600FT
14:00
V
13 °C 40 mi 7.500 ft 200° 200° 5 kt METAR CYYC 122000Z 20005KT 150V300 40SM BKN075 BKN250 13/M03 A2970 RMK AC7CI1 CI TR VIRGA ALQDS SLP075 DENSITY ALT 4500FT
13:00
V
12 °C 40 mi 7.400 ft 230° 230° 8 kt METAR CYYC 121900Z 23008KT 40SM BKN074 BKN250 12/M05 A2970 RMK AC7CI1 CI TR SH NW SLP082 DENSITY ALT 4400FT
12:00
V
12 °C 40 mi 8.500 ft 260° 260° 9 - 15 kt METAR CYYC 121800Z 26009G15KT 40SM BKN085 BKN250 12/M06 A2970 RMK AC7CI1 CI TR SLP081 DENSITY ALT 4400FT
11:00
V
12 °C 40 mi 25.000 ft 300° 300° 10 kt METAR CYYC 121700Z 30010KT 260V320 40SM FEW070 BKN250 12/M05 A2970 RMK AC1CI6 CONTRAILS SLP075 DENSITY ALT 4400FT
10:00
V
11 °C 40 mi 23.000 ft 290° 290° 12 - 18 kt METAR CYYC 121600Z 29012G18KT 40SM FEW070 FEW110 BKN230 11/M04 A2969 RMK AC1AC1CI6 AC TR CONTRAILS SLP071 DENSITY ALT 4300FT
09:00
V
10 °C 40 mi 25.000 ft 290° 290° 12 kt METAR CYYC 121500Z 29012KT 40SM FEW070 FEW110 BKN250 10/M03 A2967 RMK AC1AC1CC6 AC TR SLP067 DENSITY ALT 4200FT
08:00
V
8 °C 40 mi 25.000 ft 280° 280° 11 kt METAR CYYC 121400Z 28011KT 40SM FEW070 FEW110 BKN250 08/M03 A2967 RMK AC1AC1CC6 AC TR SLP065 DENSITY ALT 4000FT
07:00
V
8 °C 40 mi 22.000 ft 280° 280° 11 - 16 kt METAR CYYC 121300Z 28011G16KT 40SM FEW130 FEW180 BKN220 08/M03 A2966 RMK AC1AS2CC4 AC TR SLP060 DENSITY ALT 3900FT
06:48
V
8 °C 40 mi 23.000 ft 280° 280° 12 - 17 kt METAR CYYC 121248Z 28012G17KT 40SM FEW130 FEW180 BKN230 08/M03 A2966 RMK AC1AS2CS4 AC TR WSHFT 1224 SLP061 DENSITY ALT 3900FT
06:00
V
5 °C 15 mi 21.000 ft 220° 220° 3 kt METAR CYYC 121200Z 22003KT 200V310 15SM OVC210 05/M04 A2966 RMK CI8 SLP061
05:00
V
3 °C 15 mi 21.000 ft 210° 210° 3 kt METAR CYYC 121100Z 21003KT 160V250 15SM FEW090 SCT190 BKN210 03/M04 A2966 RMK AC1AS2CI3 SLP064
04:00
V
4 °C 15 mi 23.000 ft 220° 220° 6 kt METAR CYYC 121000Z 22006KT 15SM FEW090 FEW190 BKN230 04/M04 A2965 RMK AC2AC1CI3 AC TR SLP062
03:00
V
5 °C 15 mi 22.000 ft 220° 220° 7 kt METAR CYYC 120900Z 22007KT 15SM FEW120 BKN220 05/M05 A2966 RMK AC1CI5 SLP063
02:31
V
2 °C 15 mi 22.000 ft 130° 130° 5 kt METAR CYYC 120831Z 13005KT 100V220 15SM FEW120 OVC220 02/M05 A2967 RMK AC2CI6 SLP072
02:00
V
5 °C 15 mi 21.000 ft 220° 220° 4 kt METAR CYYC 120800Z 22004KT 15SM BKN210 05/M05 A2967 RMK CS6 SLP067
01:00
V
2 °C 15 mi 22.000 ft 360° 360° 0 kt METAR CYYC 120700Z 00000KT 15SM BKN220 02/M04 A2967 RMK CI5 SLP073
00:00
V
4 °C 15 mi 24.000 ft Var Var 2 kt METAR CYYC 120600Z VRB02KT 15SM FEW140 SCT180 BKN240 04/M05 A2968 RMK AC1AS2CI3 SLP078
Segnala modifiche